Terminal Aerodrome Forecast
Issued by NWS Austin/San Antonio, TX

Home | Current Version | Previous Version | Text Only | Print | Product List | Glossary On
Versions: 1 2 3 4 5 6 7 8 9 10 11 12 13 14 15 16 17
946
FTUS44 KEWX 230934 AAA
TAFAUS
TAF AMD
KAUS 230934Z 2310/2412 17006KT P6SM FEW250
     FM231030 17006KT P6SM BKN009
     FM231430 17012KT P6SM FEW035 SCT250
     FM240600 18008KT P6SM BKN012=

USA.gov is the U.S. government's official web portal to all federal, state and local government web resources and services.